sensor_id;sensor_type;location;lat;lon;timestamp;P1;durP1;ratioP1;P2;durP2;ratioP2
70385;SDS011;63206;55.650;37.500;2023-01-19T00:00:04;19.77;;;6.80;;
70385;SDS011;63206;55.650;37.500;2023-01-19T00:02:34;21.55;;;7.18;;
70385;SDS011;63206;55.650;37.500;2023-01-19T00:05:00;19.92;;;7.65;;
70385;SDS011;63206;55.650;37.500;2023-01-19T00:07:31;27.00;;;9.57;;
70385;SDS011;63206;55.650;37.500;2023-01-19T00:09:57;24.13;;;9.02;;
70385;SDS011;63206;55.650;37.500;2023-01-19T00:12:32;24.85;;;8.50;;
70385;SDS011;63206;55.650;37.500;2023-01-19T00:14:58;21.38;;;7.07;;
70385;SDS011;63206;55.650;37.500;2023-01-19T00:17:29;24.88;;;8.80;;
70385;SDS011;63206;55.650;37.500;2023-01-19T00:19:58;25.63;;;9.00;;
70385;SDS011;63206;55.650;37.500;2023-01-19T00:22:30;18.63;;;7.15;;
70385;SDS011;63206;55.650;37.500;2023-01-19T00:24:59;21.83;;;7.22;;
70385;SDS011;63206;55.650;37.500;2023-01-19T00:27:27;19.95;;;7.15;;
70385;SDS011;63206;55.650;37.500;2023-01-19T00:29:57;19.95;;;6.75;;
70385;SDS011;63206;55.650;37.500;2023-01-19T00:32:26;18.00;;;6.30;;
70385;SDS011;63206;55.650;37.500;2023-01-19T00:34:55;21.48;;;7.00;;
70385;SDS011;63206;55.650;37.500;2023-01-19T00:37:27;18.77;;;6.70;;
70385;SDS011;63206;55.650;37.500;2023-01-19T00:39:59;22.88;;;7.75;;
70385;SDS011;63206;55.650;37.500;2023-01-19T00:42:30;20.63;;;7.20;;
70385;SDS011;63206;55.650;37.500;2023-01-19T00:45:12;17.17;;;6.47;;
70385;SDS011;63206;55.650;37.500;2023-01-19T00:47:43;23.35;;;7.63;;
70385;SDS011;63206;55.650;37.500;2023-01-19T00:50:18;27.73;;;9.10;;
70385;SDS011;63206;55.650;37.500;2023-01-19T00:52:49;22.15;;;8.45;;
70385;SDS011;63206;55.650;37.500;2023-01-19T00:55:19;18.52;;;7.00;;
70385;SDS011;63206;55.650;37.500;2023-01-19T00:57:51;25.27;;;8.35;;
70385;SDS011;63206;55.650;37.500;2023-01-19T01:00:22;23.80;;;8.52;;
70385;SDS011;63206;55.650;37.500;2023-01-19T01:02:54;26.05;;;8.20;;
70385;SDS011;63206;55.650;37.500;2023-01-19T01:05:20;23.98;;;8.38;;
70385;SDS011;63206;55.650;37.500;2023-01-19T01:07:49;19.70;;;7.00;;
70385;SDS011;63206;55.650;37.500;2023-01-19T01:10:16;28.45;;;8.85;;
70385;SDS011;63206;55.650;37.500;2023-01-19T01:12:42;25.55;;;7.95;;
70385;SDS011;63206;55.650;37.500;2023-01-19T01:15:12;20.80;;;7.45;;
70385;SDS011;63206;55.650;37.500;2023-01-19T01:17:41;24.30;;;9.00;;
70385;SDS011;63206;55.650;37.500;2023-01-19T01:20:15;26.00;;;9.40;;
70385;SDS011;63206;55.650;37.500;2023-01-19T01:22:43;22.73;;;8.05;;
70385;SDS011;63206;55.650;37.500;2023-01-19T01:25:13;25.42;;;9.00;;
70385;SDS011;63206;55.650;37.500;2023-01-19T01:27:40;22.10;;;8.32;;
70385;SDS011;63206;55.650;37.500;2023-01-19T01:30:09;24.50;;;8.02;;
70385;SDS011;63206;55.650;37.500;2023-01-19T01:32:41;25.75;;;9.18;;
70385;SDS011;63206;55.650;37.500;2023-01-19T01:35:12;21.90;;;7.20;;
70385;SDS011;63206;55.650;37.500;2023-01-19T01:37:44;27.40;;;9.80;;
70385;SDS011;63206;55.650;37.500;2023-01-19T01:40:18;25.00;;;8.77;;
70385;SDS011;63206;55.650;37.500;2023-01-19T01:42:47;25.02;;;8.40;;
70385;SDS011;63206;55.650;37.500;2023-01-19T01:45:25;21.90;;;7.60;;
70385;SDS011;63206;55.650;37.500;2023-01-19T01:47:57;29.27;;;9.90;;
70385;SDS011;63206;55.650;37.500;2023-01-19T01:50:27;23.17;;;8.48;;
70385;SDS011;63206;55.650;37.500;2023-01-19T01:55:30;24.20;;;8.68;;
70385;SDS011;63206;55.650;37.500;2023-01-19T01:58:01;25.45;;;8.57;;
70385;SDS011;63206;55.650;37.500;2023-01-19T02:00:32;22.67;;;8.48;;
70385;SDS011;63206;55.650;37.500;2023-01-19T02:03:24;21.85;;;8.55;;
70385;SDS011;63206;55.650;37.500;2023-01-19T02:05:55;21.63;;;7.97;;
70385;SDS011;63206;55.650;37.500;2023-01-19T02:11:22;24.45;;;7.88;;
70385;SDS011;63206;55.650;37.500;2023-01-19T02:14:10;25.58;;;8.90;;
70385;SDS011;63206;55.650;37.500;2023-01-19T02:16:41;22.02;;;7.97;;
70385;SDS011;63206;55.650;37.500;2023-01-19T02:19:11;25.85;;;9.35;;
70385;SDS011;63206;55.650;37.500;2023-01-19T02:24:13;24.30;;;9.38;;
70385;SDS011;63206;55.650;37.500;2023-01-19T02:26:47;24.92;;;8.20;;
70385;SDS011;63206;55.650;37.500;2023-01-19T02:29:20;27.20;;;9.88;;
70385;SDS011;63206;55.650;37.500;2023-01-19T02:31:50;20.10;;;7.93;;
70385;SDS011;63206;55.650;37.500;2023-01-19T02:34:19;26.75;;;9.38;;
70385;SDS011;63206;55.650;37.500;2023-01-19T02:39:18;22.70;;;8.27;;
70385;SDS011;63206;55.650;37.500;2023-01-19T02:41:50;20.05;;;8.00;;
70385;SDS011;63206;55.650;37.500;2023-01-19T02:44:25;25.70;;;8.73;;
70385;SDS011;63206;55.650;37.500;2023-01-19T02:46:58;27.63;;;10.32;;
70385;SDS011;63206;55.650;37.500;2023-01-19T02:49:30;25.95;;;8.13;;
70385;SDS011;63206;55.650;37.500;2023-01-19T02:52:01;21.33;;;8.10;;
70385;SDS011;63206;55.650;37.500;2023-01-19T02:54:45;26.63;;;8.70;;
70385;SDS011;63206;55.650;37.500;2023-01-19T03:06:16;23.42;;;8.35;;
70385;SDS011;63206;55.650;37.500;2023-01-19T03:13:29;22.60;;;7.18;;
70385;SDS011;63206;55.650;37.500;2023-01-19T03:18:30;23.10;;;7.95;;
70385;SDS011;63206;55.650;37.500;2023-01-19T03:21:04;18.30;;;7.18;;
70385;SDS011;63206;55.650;37.500;2023-01-19T03:23:36;19.52;;;7.70;;
70385;SDS011;63206;55.650;37.500;2023-01-19T03:26:03;23.65;;;8.65;;
70385;SDS011;63206;55.650;37.500;2023-01-19T03:28:33;24.55;;;8.68;;
70385;SDS011;63206;55.650;37.500;2023-01-19T03:31:10;22.48;;;7.88;;
70385;SDS011;63206;55.650;37.500;2023-01-19T03:33:44;22.02;;;8.10;;
70385;SDS011;63206;55.650;37.500;2023-01-19T03:36:23;19.75;;;8.23;;
70385;SDS011;63206;55.650;37.500;2023-01-19T03:38:56;17.42;;;6.97;;
70385;SDS011;63206;55.650;37.500;2023-01-19T03:41:23;19.13;;;6.93;;
70385;SDS011;63206;55.650;37.500;2023-01-19T03:43:56;22.02;;;7.80;;
70385;SDS011;63206;55.650;37.500;2023-01-19T03:46:23;22.30;;;7.80;;
70385;SDS011;63206;55.650;37.500;2023-01-19T03:48:52;18.25;;;6.95;;
70385;SDS011;63206;55.650;37.500;2023-01-19T03:51:22;19.92;;;8.15;;
70385;SDS011;63206;55.650;37.500;2023-01-19T03:53:48;20.40;;;8.43;;
70385;SDS011;63206;55.650;37.500;2023-01-19T03:56:22;20.30;;;7.97;;
70385;SDS011;63206;55.650;37.500;2023-01-19T03:58:51;21.35;;;8.32;;
70385;SDS011;63206;55.650;37.500;2023-01-19T04:01:17;18.27;;;7.03;;
70385;SDS011;63206;55.650;37.500;2023-01-19T04:03:52;21.00;;;7.28;;
70385;SDS011;63206;55.650;37.500;2023-01-19T04:08:47;18.90;;;7.00;;
70385;SDS011;63206;55.650;37.500;2023-01-19T04:11:19;22.10;;;8.13;;
70385;SDS011;63206;55.650;37.500;2023-01-19T04:13:45;20.58;;;7.75;;
70385;SDS011;63206;55.650;37.500;2023-01-19T04:16:13;18.65;;;7.40;;
70385;SDS011;63206;55.650;37.500;2023-01-19T04:18:47;19.27;;;7.82;;
70385;SDS011;63206;55.650;37.500;2023-01-19T04:21:13;17.60;;;6.78;;
70385;SDS011;63206;55.650;37.500;2023-01-19T04:23:39;21.58;;;8.30;;
70385;SDS011;63206;55.650;37.500;2023-01-19T04:26:07;18.05;;;7.45;;
70385;SDS011;63206;55.650;37.500;2023-01-19T04:28:36;20.73;;;8.10;;
70385;SDS011;63206;55.650;37.500;2023-01-19T04:31:02;22.85;;;7.60;;
70385;SDS011;63206;55.650;37.500;2023-01-19T04:33:28;21.38;;;8.10;;
70385;SDS011;63206;55.650;37.500;2023-01-19T04:36:01;19.88;;;7.93;;
70385;SDS011;63206;55.650;37.500;2023-01-19T04:38:30;19.67;;;7.25;;
70385;SDS011;63206;55.650;37.500;2023-01-19T04:40:58;19.13;;;7.40;;
70385;SDS011;63206;55.650;37.500;2023-01-19T04:43:27;20.75;;;8.05;;
70385;SDS011;63206;55.650;37.500;2023-01-19T04:45:56;19.48;;;8.10;;
70385;SDS011;63206;55.650;37.500;2023-01-19T04:48:27;20.65;;;8.25;;
70385;SDS011;63206;55.650;37.500;2023-01-19T04:50:54;23.65;;;8.13;;
70385;SDS011;63206;55.650;37.500;2023-01-19T04:53:28;21.70;;;6.88;;
70385;SDS011;63206;55.650;37.500;2023-01-19T04:55:57;22.60;;;8.15;;
70385;SDS011;63206;55.650;37.500;2023-01-19T05:00:57;22.55;;;7.75;;
70385;SDS011;63206;55.650;37.500;2023-01-19T05:03:26;20.35;;;8.15;;
70385;SDS011;63206;55.650;37.500;2023-01-19T05:05:52;24.38;;;9.18;;
70385;SDS011;63206;55.650;37.500;2023-01-19T05:08:21;19.98;;;8.63;;
70385;SDS011;63206;55.650;37.500;2023-01-19T05:10:49;20.67;;;8.13;;
70385;SDS011;63206;55.650;37.500;2023-01-19T05:13:18;22.83;;;9.25;;
70385;SDS011;63206;55.650;37.500;2023-01-19T05:15:44;23.70;;;9.02;;
70385;SDS011;63206;55.650;37.500;2023-01-19T05:18:10;19.48;;;7.32;;
70385;SDS011;63206;55.650;37.500;2023-01-19T05:20:36;27.10;;;9.52;;
70385;SDS011;63206;55.650;37.500;2023-01-19T05:23:02;21.83;;;8.90;;
70385;SDS011;63206;55.650;37.500;2023-01-19T05:25:28;21.23;;;8.75;;
70385;SDS011;63206;55.650;37.500;2023-01-19T05:28:02;24.42;;;8.63;;
70385;SDS011;63206;55.650;37.500;2023-01-19T05:30:34;25.00;;;9.30;;
70385;SDS011;63206;55.650;37.500;2023-01-19T05:33:03;19.80;;;8.57;;
70385;SDS011;63206;55.650;37.500;2023-01-19T05:35:32;21.42;;;8.13;;
70385;SDS011;63206;55.650;37.500;2023-01-19T05:38:04;18.27;;;8.13;;
70385;SDS011;63206;55.650;37.500;2023-01-19T05:40:32;19.80;;;7.97;;
70385;SDS011;63206;55.650;37.500;2023-01-19T05:42:58;22.42;;;9.10;;
70385;SDS011;63206;55.650;37.500;2023-01-19T05:45:28;25.13;;;9.73;;
70385;SDS011;63206;55.650;37.500;2023-01-19T05:47:59;24.10;;;9.98;;
70385;SDS011;63206;55.650;37.500;2023-01-19T05:50:25;27.58;;;9.20;;
70385;SDS011;63206;55.650;37.500;2023-01-19T05:52:53;22.35;;;8.93;;
70385;SDS011;63206;55.650;37.500;2023-01-19T05:55:22;23.98;;;9.40;;
70385;SDS011;63206;55.650;37.500;2023-01-19T05:57:54;26.35;;;9.60;;
70385;SDS011;63206;55.650;37.500;2023-01-19T06:00:22;25.33;;;9.90;;
70385;SDS011;63206;55.650;37.500;2023-01-19T06:02:52;22.85;;;8.98;;
70385;SDS011;63206;55.650;37.500;2023-01-19T06:05:18;24.75;;;9.27;;
70385;SDS011;63206;55.650;37.500;2023-01-19T06:07:46;26.48;;;10.48;;
70385;SDS011;63206;55.650;37.500;2023-01-19T06:10:15;22.80;;;9.77;;
70385;SDS011;63206;55.650;37.500;2023-01-19T06:12:41;26.23;;;9.93;;
70385;SDS011;63206;55.650;37.500;2023-01-19T06:15:07;24.80;;;9.88;;
70385;SDS011;63206;55.650;37.500;2023-01-19T06:17:36;24.92;;;9.32;;
70385;SDS011;63206;55.650;37.500;2023-01-19T06:20:02;23.58;;;9.63;;
70385;SDS011;63206;55.650;37.500;2023-01-19T06:22:35;24.33;;;10.18;;
70385;SDS011;63206;55.650;37.500;2023-01-19T06:25:07;25.15;;;9.68;;
70385;SDS011;63206;55.650;37.500;2023-01-19T06:27:36;26.17;;;10.18;;
70385;SDS011;63206;55.650;37.500;2023-01-19T06:30:04;22.40;;;9.68;;
70385;SDS011;63206;55.650;37.500;2023-01-19T06:32:31;25.23;;;10.18;;
70385;SDS011;63206;55.650;37.500;2023-01-19T06:34:59;27.77;;;10.15;;
70385;SDS011;63206;55.650;37.500;2023-01-19T06:37:30;26.33;;;11.40;;
70385;SDS011;63206;55.650;37.500;2023-01-19T06:39:56;25.75;;;10.05;;
70385;SDS011;63206;55.650;37.500;2023-01-19T06:42:33;27.95;;;10.23;;
70385;SDS011;63206;55.650;37.500;2023-01-19T06:45:05;24.15;;;9.48;;
70385;SDS011;63206;55.650;37.500;2023-01-19T06:47:37;26.65;;;10.13;;
70385;SDS011;63206;55.650;37.500;2023-01-19T06:50:08;30.83;;;10.70;;
70385;SDS011;63206;55.650;37.500;2023-01-19T06:52:37;26.58;;;9.73;;
70385;SDS011;63206;55.650;37.500;2023-01-19T06:55:10;25.95;;;9.75;;
70385;SDS011;63206;55.650;37.500;2023-01-19T06:57:36;28.08;;;10.43;;
70385;SDS011;63206;55.650;37.500;2023-01-19T07:00:09;25.02;;;10.15;;
70385;SDS011;63206;55.650;37.500;2023-01-19T07:02:42;27.13;;;9.82;;
70385;SDS011;63206;55.650;37.500;2023-01-19T07:05:11;25.55;;;10.73;;
70385;SDS011;63206;55.650;37.500;2023-01-19T07:07:42;31.40;;;11.68;;
70385;SDS011;63206;55.650;37.500;2023-01-19T07:10:10;25.75;;;9.80;;
70385;SDS011;63206;55.650;37.500;2023-01-19T07:12:43;25.50;;;9.70;;
70385;SDS011;63206;55.650;37.500;2023-01-19T07:15:16;27.55;;;10.80;;
70385;SDS011;63206;55.650;37.500;2023-01-19T07:17:46;25.55;;;9.50;;
70385;SDS011;63206;55.650;37.500;2023-01-19T07:20:15;26.60;;;10.68;;
70385;SDS011;63206;55.650;37.500;2023-01-19T07:22:44;27.17;;;10.02;;
70385;SDS011;63206;55.650;37.500;2023-01-19T07:25:13;29.40;;;10.68;;
70385;SDS011;63206;55.650;37.500;2023-01-19T07:27:39;26.83;;;9.70;;
70385;SDS011;63206;55.650;37.500;2023-01-19T07:30:06;21.63;;;10.00;;
70385;SDS011;63206;55.650;37.500;2023-01-19T07:32:35;25.75;;;10.20;;
70385;SDS011;63206;55.650;37.500;2023-01-19T07:35:04;23.77;;;10.13;;
70385;SDS011;63206;55.650;37.500;2023-01-19T07:37:35;27.52;;;10.88;;
70385;SDS011;63206;55.650;37.500;2023-01-19T07:42:30;27.88;;;10.68;;
70385;SDS011;63206;55.650;37.500;2023-01-19T07:44:59;25.13;;;9.65;;
70385;SDS011;63206;55.650;37.500;2023-01-19T07:47:31;27.55;;;10.27;;
70385;SDS011;63206;55.650;37.500;2023-01-19T07:50:02;26.35;;;9.77;;
70385;SDS011;63206;55.650;37.500;2023-01-19T07:52:31;23.30;;;9.25;;
70385;SDS011;63206;55.650;37.500;2023-01-19T07:54:57;29.42;;;10.38;;
70385;SDS011;63206;55.650;37.500;2023-01-19T07:57:29;29.42;;;11.25;;
70385;SDS011;63206;55.650;37.500;2023-01-19T07:59:58;27.25;;;10.90;;
70385;SDS011;63206;55.650;37.500;2023-01-19T08:02:24;27.65;;;10.60;;
70385;SDS011;63206;55.650;37.500;2023-01-19T08:04:55;24.50;;;9.50;;
70385;SDS011;63206;55.650;37.500;2023-01-19T08:07:21;29.17;;;10.80;;
70385;SDS011;63206;55.650;37.500;2023-01-19T08:09:50;30.48;;;10.38;;
70385;SDS011;63206;55.650;37.500;2023-01-19T08:12:16;26.40;;;9.93;;
70385;SDS011;63206;55.650;37.500;2023-01-19T08:14:48;26.42;;;10.68;;
70385;SDS011;63206;55.650;37.500;2023-01-19T08:17:17;26.98;;;10.13;;
70385;SDS011;63206;55.650;37.500;2023-01-19T08:19:46;25.60;;;10.60;;
70385;SDS011;63206;55.650;37.500;2023-01-19T08:22:15;26.40;;;9.77;;
70385;SDS011;63206;55.650;37.500;2023-01-19T08:24:53;27.25;;;11.48;;
70385;SDS011;63206;55.650;37.500;2023-01-19T08:27:22;25.15;;;10.60;;
70385;SDS011;63206;55.650;37.500;2023-01-19T08:29:53;27.73;;;10.95;;
70385;SDS011;63206;55.650;37.500;2023-01-19T08:32:21;24.75;;;11.00;;
70385;SDS011;63206;55.650;37.500;2023-01-19T08:34:49;28.17;;;10.15;;
70385;SDS011;63206;55.650;37.500;2023-01-19T08:37:18;25.55;;;10.25;;
70385;SDS011;63206;55.650;37.500;2023-01-19T08:39:47;29.73;;;10.98;;
70385;SDS011;63206;55.650;37.500;2023-01-19T08:42:13;25.90;;;10.00;;
70385;SDS011;63206;55.650;37.500;2023-01-19T08:47:13;26.42;;;10.52;;
70385;SDS011;63206;55.650;37.500;2023-01-19T08:49:41;26.77;;;10.43;;
70385;SDS011;63206;55.650;37.500;2023-01-19T08:52:09;28.67;;;11.07;;
70385;SDS011;63206;55.650;37.500;2023-01-19T08:54:43;30.05;;;11.35;;
70385;SDS011;63206;55.650;37.500;2023-01-19T08:57:17;30.10;;;11.90;;
70385;SDS011;63206;55.650;37.500;2023-01-19T08:59:49;27.05;;;9.98;;
70385;SDS011;63206;55.650;37.500;2023-01-19T09:02:18;26.17;;;10.65;;
70385;SDS011;63206;55.650;37.500;2023-01-19T09:04:46;28.45;;;9.60;;
70385;SDS011;63206;55.650;37.500;2023-01-19T09:07:18;29.38;;;11.38;;
70385;SDS011;63206;55.650;37.500;2023-01-19T09:09:50;34.65;;;12.52;;
70385;SDS011;63206;55.650;37.500;2023-01-19T09:12:22;26.10;;;9.98;;
70385;SDS011;63206;55.650;37.500;2023-01-19T09:14:53;26.35;;;10.93;;
70385;SDS011;63206;55.650;37.500;2023-01-19T09:17:19;29.42;;;11.23;;
70385;SDS011;63206;55.650;37.500;2023-01-19T09:19:54;32.45;;;11.32;;
70385;SDS011;63206;55.650;37.500;2023-01-19T09:22:20;28.83;;;11.32;;
70385;SDS011;63206;55.650;37.500;2023-01-19T09:24:51;32.17;;;12.32;;
70385;SDS011;63206;55.650;37.500;2023-01-19T09:27:19;30.58;;;11.63;;
70385;SDS011;63206;55.650;37.500;2023-01-19T09:29:54;29.50;;;10.75;;
70385;SDS011;63206;55.650;37.500;2023-01-19T09:32:23;29.50;;;11.77;;
70385;SDS011;63206;55.650;37.500;2023-01-19T09:34:57;25.35;;;10.48;;
70385;SDS011;63206;55.650;37.500;2023-01-19T09:37:26;31.67;;;11.93;;
70385;SDS011;63206;55.650;37.500;2023-01-19T09:39:54;24.73;;;11.10;;
70385;SDS011;63206;55.650;37.500;2023-01-19T09:42:39;31.45;;;11.35;;
70385;SDS011;63206;55.650;37.500;2023-01-19T09:45:53;28.88;;;11.48;;
70385;SDS011;63206;55.650;37.500;2023-01-19T09:47:53;36.30;;;12.10;;
70385;SDS011;63206;55.650;37.500;2023-01-19T09:50:30;28.33;;;11.25;;
70385;SDS011;63206;55.650;37.500;2023-01-19T09:53:08;28.98;;;11.07;;
70385;SDS011;63206;55.650;37.500;2023-01-19T09:55:39;28.55;;;11.20;;
70385;SDS011;63206;55.650;37.500;2023-01-19T09:58:15;31.10;;;12.13;;
70385;SDS011;63206;55.650;37.500;2023-01-19T10:00:50;28.98;;;11.30;;
70385;SDS011;63206;55.650;37.500;2023-01-19T10:03:24;29.67;;;11.18;;
70385;SDS011;63206;55.650;37.500;2023-01-19T10:06:06;32.53;;;12.00;;
70385;SDS011;63206;55.650;37.500;2023-01-19T10:08:42;31.90;;;12.30;;
70385;SDS011;63206;55.650;37.500;2023-01-19T10:11:30;26.77;;;10.68;;
70385;SDS011;63206;55.650;37.500;2023-01-19T10:14:00;32.53;;;12.13;;
70385;SDS011;63206;55.650;37.500;2023-01-19T10:18:58;31.35;;;12.05;;
70385;SDS011;63206;55.650;37.500;2023-01-19T10:21:38;33.78;;;12.73;;
70385;SDS011;63206;55.650;37.500;2023-01-19T10:29:25;29.45;;;12.38;;
70385;SDS011;63206;55.650;37.500;2023-01-19T10:34:28;30.15;;;11.30;;
70385;SDS011;63206;55.650;37.500;2023-01-19T10:37:04;29.65;;;11.50;;
70385;SDS011;63206;55.650;37.500;2023-01-19T10:39:33;32.53;;;12.55;;
70385;SDS011;63206;55.650;37.500;2023-01-19T10:42:01;33.10;;;12.80;;
70385;SDS011;63206;55.650;37.500;2023-01-19T10:44:29;35.95;;;12.30;;
70385;SDS011;63206;55.650;37.500;2023-01-19T10:47:01;32.35;;;12.50;;
70385;SDS011;63206;55.650;37.500;2023-01-19T10:49:35;32.60;;;12.50;;
70385;SDS011;63206;55.650;37.500;2023-01-19T11:00:13;38.63;;;12.68;;
70385;SDS011;63206;55.650;37.500;2023-01-19T11:05:31;31.92;;;11.77;;
70385;SDS011;63206;55.650;37.500;2023-01-19T11:07:59;35.70;;;12.48;;
70385;SDS011;63206;55.650;37.500;2023-01-19T11:10:27;34.67;;;13.32;;
70385;SDS011;63206;55.650;37.500;2023-01-19T11:13:00;36.67;;;12.52;;
70385;SDS011;63206;55.650;37.500;2023-01-19T11:15:42;35.97;;;12.95;;
70385;SDS011;63206;55.650;37.500;2023-01-19T11:23:37;37.40;;;12.75;;
70385;SDS011;63206;55.650;37.500;2023-01-19T11:26:23;38.45;;;13.65;;
70385;SDS011;63206;55.650;37.500;2023-01-19T11:28:55;34.22;;;12.15;;
70385;SDS011;63206;55.650;37.500;2023-01-19T11:34:03;38.15;;;13.60;;
70385;SDS011;63206;55.650;37.500;2023-01-19T11:36:37;34.38;;;12.25;;
70385;SDS011;63206;55.650;37.500;2023-01-19T11:39:22;35.28;;;12.65;;
70385;SDS011;63206;55.650;37.500;2023-01-19T11:41:53;35.13;;;12.27;;
70385;SDS011;63206;55.650;37.500;2023-01-19T11:44:28;34.60;;;11.90;;
70385;SDS011;63206;55.650;37.500;2023-01-19T11:46:56;28.60;;;10.77;;
70385;SDS011;63206;55.650;37.500;2023-01-19T11:49:37;33.95;;;12.25;;
70385;SDS011;63206;55.650;37.500;2023-01-19T11:54:53;34.50;;;12.50;;
70385;SDS011;63206;55.650;37.500;2023-01-19T11:57:23;35.78;;;12.07;;
70385;SDS011;63206;55.650;37.500;2023-01-19T11:59:53;40.20;;;12.88;;
70385;SDS011;63206;55.650;37.500;2023-01-19T12:02:26;33.47;;;11.35;;
70385;SDS011;63206;55.650;37.500;2023-01-19T12:05:03;32.67;;;11.98;;
70385;SDS011;63206;55.650;37.500;2023-01-19T12:07:31;38.92;;;11.98;;
70385;SDS011;63206;55.650;37.500;2023-01-19T12:13:01;32.42;;;12.00;;
70385;SDS011;63206;55.650;37.500;2023-01-19T12:15:42;33.60;;;11.95;;
70385;SDS011;63206;55.650;37.500;2023-01-19T12:18:11;30.33;;;11.38;;
70385;SDS011;63206;55.650;37.500;2023-01-19T12:20:44;33.72;;;11.27;;
70385;SDS011;63206;55.650;37.500;2023-01-19T12:25:52;32.88;;;11.32;;
70385;SDS011;63206;55.650;37.500;2023-01-19T12:28:30;34.13;;;10.98;;
70385;SDS011;63206;55.650;37.500;2023-01-19T12:31:00;28.20;;;10.10;;
70385;SDS011;63206;55.650;37.500;2023-01-19T12:33:36;36.83;;;12.38;;
70385;SDS011;63206;55.650;37.500;2023-01-19T12:44:14;35.70;;;11.68;;
70385;SDS011;63206;55.650;37.500;2023-01-19T12:50:20;30.45;;;10.65;;
70385;SDS011;63206;55.650;37.500;2023-01-19T12:52:37;33.63;;;11.85;;
70385;SDS011;63206;55.650;37.500;2023-01-19T12:57:38;36.55;;;12.13;;
70385;SDS011;63206;55.650;37.500;2023-01-19T13:02:50;34.92;;;12.20;;
70385;SDS011;63206;55.650;37.500;2023-01-19T13:05:18;31.50;;;12.07;;
70385;SDS011;63206;55.650;37.500;2023-01-19T13:13:18;34.88;;;12.50;;
70385;SDS011;63206;55.650;37.500;2023-01-19T13:15:44;32.45;;;12.15;;
70385;SDS011;63206;55.650;37.500;2023-01-19T13:18:20;41.17;;;13.77;;
70385;SDS011;63206;55.650;37.500;2023-01-19T13:20:51;36.47;;;12.13;;
70385;SDS011;63206;55.650;37.500;2023-01-19T13:23:25;31.70;;;11.95;;
70385;SDS011;63206;55.650;37.500;2023-01-19T13:26:04;36.88;;;13.07;;
70385;SDS011;63206;55.650;37.500;2023-01-19T13:28:41;41.85;;;13.80;;
70385;SDS011;63206;55.650;37.500;2023-01-19T13:31:11;41.03;;;13.32;;
70385;SDS011;63206;55.650;37.500;2023-01-19T13:33:48;37.40;;;12.93;;
70385;SDS011;63206;55.650;37.500;2023-01-19T13:36:22;38.03;;;13.60;;
70385;SDS011;63206;55.650;37.500;2023-01-19T13:38:56;40.30;;;14.45;;
70385;SDS011;63206;55.650;37.500;2023-01-19T13:41:24;39.90;;;13.50;;
70385;SDS011;63206;55.650;37.500;2023-01-19T13:43:58;34.58;;;11.73;;
70385;SDS011;63206;55.650;37.500;2023-01-19T13:46:28;43.53;;;15.07;;
70385;SDS011;63206;55.650;37.500;2023-01-19T13:49:56;46.63;;;14.73;;
70385;SDS011;63206;55.650;37.500;2023-01-19T13:52:05;34.83;;;12.82;;
70385;SDS011;63206;55.650;37.500;2023-01-19T13:54:31;48.75;;;14.30;;
70385;SDS011;63206;55.650;37.500;2023-01-19T13:56:57;39.67;;;12.98;;
70385;SDS011;63206;55.650;37.500;2023-01-19T13:59:23;41.08;;;14.30;;
70385;SDS011;63206;55.650;37.500;2023-01-19T14:01:48;41.60;;;13.20;;
70385;SDS011;63206;55.650;37.500;2023-01-19T14:04:26;37.65;;;11.57;;
70385;SDS011;63206;55.650;37.500;2023-01-19T14:06:52;45.55;;;14.35;;
70385;SDS011;63206;55.650;37.500;2023-01-19T14:09:20;47.67;;;15.75;;
70385;SDS011;63206;55.650;37.500;2023-01-19T14:11:47;39.90;;;13.90;;
70385;SDS011;63206;55.650;37.500;2023-01-19T14:14:31;33.85;;;11.65;;
70385;SDS011;63206;55.650;37.500;2023-01-19T14:16:57;34.65;;;13.13;;
70385;SDS011;63206;55.650;37.500;2023-01-19T14:19:24;34.08;;;11.23;;
70385;SDS011;63206;55.650;37.500;2023-01-19T14:22:00;38.25;;;12.85;;
70385;SDS011;63206;55.650;37.500;2023-01-19T14:24:26;36.83;;;13.40;;
70385;SDS011;63206;55.650;37.500;2023-01-19T14:29:54;41.13;;;14.05;;
70385;SDS011;63206;55.650;37.500;2023-01-19T14:32:40;35.65;;;11.18;;
70385;SDS011;63206;55.650;37.500;2023-01-19T14:35:13;33.85;;;12.48;;
70385;SDS011;63206;55.650;37.500;2023-01-19T14:37:46;34.90;;;12.18;;
70385;SDS011;63206;55.650;37.500;2023-01-19T14:40:21;34.28;;;12.80;;
70385;SDS011;63206;55.650;37.500;2023-01-19T14:45:17;30.77;;;11.05;;
70385;SDS011;63206;55.650;37.500;2023-01-19T14:47:44;31.25;;;11.48;;
70385;SDS011;63206;55.650;37.500;2023-01-19T14:50:21;34.95;;;13.18;;
70385;SDS011;63206;55.650;37.500;2023-01-19T14:52:54;37.80;;;12.40;;
70385;SDS011;63206;55.650;37.500;2023-01-19T14:58:07;28.25;;;10.98;;
70385;SDS011;63206;55.650;37.500;2023-01-19T15:00:38;36.70;;;11.98;;
70385;SDS011;63206;55.650;37.500;2023-01-19T15:03:09;28.75;;;11.40;;
70385;SDS011;63206;55.650;37.500;2023-01-19T15:05:38;33.65;;;11.63;;
70385;SDS011;63206;55.650;37.500;2023-01-19T15:08:05;34.03;;;11.60;;
70385;SDS011;63206;55.650;37.500;2023-01-19T15:10:31;32.70;;;12.20;;
70385;SDS011;63206;55.650;37.500;2023-01-19T15:12:58;34.85;;;12.77;;
70385;SDS011;63206;55.650;37.500;2023-01-19T15:15:30;37.38;;;12.27;;
70385;SDS011;63206;55.650;37.500;2023-01-19T15:18:00;30.30;;;12.02;;
70385;SDS011;63206;55.650;37.500;2023-01-19T15:20:27;28.25;;;11.43;;
70385;SDS011;63206;55.650;37.500;2023-01-19T15:22:53;31.00;;;12.45;;
70385;SDS011;63206;55.650;37.500;2023-01-19T15:25:20;28.73;;;10.75;;
70385;SDS011;63206;55.650;37.500;2023-01-19T15:27:46;31.38;;;11.23;;
70385;SDS011;63206;55.650;37.500;2023-01-19T15:30:14;31.85;;;12.50;;
70385;SDS011;63206;55.650;37.500;2023-01-19T15:32:40;29.85;;;12.05;;
70385;SDS011;63206;55.650;37.500;2023-01-19T15:35:17;29.92;;;11.43;;
70385;SDS011;63206;55.650;37.500;2023-01-19T15:37:47;25.55;;;9.43;;
70385;SDS011;63206;55.650;37.500;2023-01-19T15:40:13;26.55;;;9.75;;
70385;SDS011;63206;55.650;37.500;2023-01-19T15:42:40;30.52;;;11.43;;
70385;SDS011;63206;55.650;37.500;2023-01-19T15:47:50;25.58;;;9.48;;
70385;SDS011;63206;55.650;37.500;2023-01-19T15:50:18;32.58;;;11.10;;
70385;SDS011;63206;55.650;37.500;2023-01-19T15:52:47;30.38;;;11.60;;
70385;SDS011;63206;55.650;37.500;2023-01-19T15:55:13;30.10;;;11.05;;
70385;SDS011;63206;55.650;37.500;2023-01-19T15:57:40;27.17;;;11.13;;
70385;SDS011;63206;55.650;37.500;2023-01-19T16:00:07;28.10;;;10.80;;
70385;SDS011;63206;55.650;37.500;2023-01-19T16:02:38;28.33;;;9.98;;
70385;SDS011;63206;55.650;37.500;2023-01-19T16:05:04;27.70;;;9.85;;
70385;SDS011;63206;55.650;37.500;2023-01-19T16:07:33;25.55;;;9.85;;
70385;SDS011;63206;55.650;37.500;2023-01-19T16:10:00;31.15;;;11.57;;
70385;SDS011;63206;55.650;37.500;2023-01-19T16:12:27;27.85;;;10.75;;
70385;SDS011;63206;55.650;37.500;2023-01-19T16:14:53;28.77;;;10.07;;
70385;SDS011;63206;55.650;37.500;2023-01-19T16:17:19;23.50;;;10.07;;
70385;SDS011;63206;55.650;37.500;2023-01-19T16:19:45;23.25;;;9.75;;
70385;SDS011;63206;55.650;37.500;2023-01-19T16:22:12;24.67;;;9.38;;